Flight Track Log - Related Links

Times and Time Zones

All times are in EDT time to prevent confusion due to time zone crossing. See the SKW5456 flight status page for this flight to view local times or setup timezone preferences in your user account.

Time Position Orientation Groundspeed Altitude Reporting Facility
EDT Latitude Longitude Course Direction KTS MPH feet Rate Location/Type
Fri 08:35:04 AM 44.2894 -121.1142 190° South 191 220 4,500  Level Seattle Center
Fri 08:36:05 AM 44.3039 -121.1939 284° West 272 313 5,900 2,231 Climbing Seattle Center
Fri 08:37:00 AM 43.6588 -121.3123 200° South  Level FlightAware Approximate
Fri 08:37:05 AM 44.2539 -121.2992 236° Southwest 280 322 9,000  Level Seattle Center
Fri 08:38:00 AM 43.5589 -121.3353 190° South  Level FlightAware Approximate
Fri 08:38:05 AM 44.1775 -121.3197 191° South 282 325 11,200  Level Seattle Center
Fri 08:39:00 AM 43.4591 -121.3602 190° South  Level FlightAware Approximate
Fri 08:39:05 AM 44.0933 -121.3417 191° South 305 351 13,000  Level Seattle Center
Fri 08:40:00 AM 43.3609 -121.3931 190° South  Level FlightAware Approximate
Fri 08:40:06 AM 44.0050 -121.3625 190° South 320 368 14,900  Level Seattle Center
Fri 08:41:06 AM 43.9128 -121.3847 190° South 331 381 16,800 1,600 Climbing Seattle Center
Fri 08:42:06 AM 43.8194 -121.4058 189° South 338 389 18,100 1,300 Climbing Seattle Center
Fri 08:43:06 AM 43.7208 -121.4311 190° South 352 405 19,400 1,339 Climbing Seattle Center
Fri 08:44:07 AM 43.6208 -121.4536 189° South 362 417 20,800 1,190 Climbing Seattle Center
Fri 08:45:07 AM 43.5214 -121.4753 189° South 361 415 21,800 1,000 Climbing Seattle Center
Fri 08:46:07 AM 43.4158 -121.5000 190° South 379 436 22,800 1,000 Climbing Seattle Center
Fri 08:47:07 AM 43.3097 -121.5275 191° South 387 445 23,800 1,050 Climbing Seattle Center
Fri 08:48:07 AM 43.2011 -121.5525 190° South 392 451 24,900 942 Climbing Seattle Center
Fri 08:49:08 AM 43.0925 -121.5767 189° South 394 453 25,700 793 Climbing Seattle Center
Fri 08:50:08 AM 42.9811 -121.6019 189° South 402 463 26,500 800 Climbing Seattle Center
Fri 08:51:08 AM 42.8703 -121.6281 190° South 406 467 27,300 750 Climbing Seattle Center
Fri 08:52:08 AM 42.7572 -121.6533 189° South 411 473 28,000 650 Climbing Seattle Center
Fri 08:53:08 AM 42.6431 -121.6803 190° South 414 476 28,600 744 Climbing Seattle Center
Fri 08:54:09 AM 42.5281 -121.7061 189° South 417 480 29,500 694 Climbing Seattle Center
Fri 08:55:09 AM 42.4139 -121.7317 189° South 415 478 30,000 550 Climbing Seattle Center
Fri 08:56:09 AM 42.2986 -121.7575 189° South 417 480 30,600 500 Climbing Seattle Center
Fri 08:57:09 AM 42.1808 -121.7844 190° South 422 486 31,000 198 Climbing Seattle Center
Fri 08:58:10 AM 42.0589 -121.8114 189° South 429 494 31,000  Level Seattle Center
Fri 08:59:10 AM 41.9581 -121.8339 189° South 442 509 31,000  Level Seattle Center
Fri 09:00:10 AM 41.8336 -121.8619 190° South 447 514 31,000  Level Seattle Center
Fri 09:01:10 AM 41.7064 -121.8889 189° South 457 526 31,000  Level Seattle Center
Fri 09:02:10 AM 41.5803 -121.9175 190° South 456 525 31,000  Level Seattle Center
Fri 09:03:11 AM 41.4550 -121.9450 189° South 456 525 31,000  Level Seattle Center
Fri 09:04:11 AM 41.3297 -121.9731 190° South 456 525 31,000  Level Seattle Center
Fri 09:05:11 AM 41.2069 -122.0086 192° South 453 521 31,000  Level Seattle Center
Fri 09:06:12 AM 41.0719 -122.0481 192° South 447 514 31,000  Level Seattle Center
Fri 09:07:09 AM 40.9517 -122.0814 192° South 444 511 31,000  Level Oakland Center
Fri 09:08:09 AM 40.8306 -122.1156 192° South 445 512 31,000  Level Oakland Center
Fri 09:09:10 AM 40.7103 -122.1503 192° South 443 510 31,000  Level Oakland Center
Fri 09:10:10 AM 40.5886 -122.1842 192° South 445 512 31,000  Level Oakland Center
Fri 09:11:10 AM 40.4683 -122.2194 193° South 445 512 31,000  Level Oakland Center
Fri 09:12:11 AM 40.3478 -122.2522 192° South 445 512 31,000  Level Oakland Center
Fri 09:13:11 AM 40.2278 -122.2869 192° South 444 511 31,000  Level Oakland Center
Fri 09:14:12 AM 40.0911 -122.3250 192° South 451 519 31,000  Level Oakland Center
Fri 09:15:12 AM 39.9694 -122.3589 192° South 449 517 31,000  Level Oakland Center
Fri 09:16:13 AM 39.8478 -122.3925 192° South 446 513 31,000  Level Oakland Center
Fri 09:17:13 AM 39.7258 -122.4264 192° South 448 516 31,000  Level Oakland Center
Fri 09:18:14 AM 39.6039 -122.4594 192° South 447 514 31,000  Level Oakland Center
Fri 09:19:14 AM 39.4758 -122.4956 192° South 453 521 31,000  Level Oakland Center
Fri 09:20:15 AM 39.3533 -122.5281 192° South 451 519 31,000  Level Oakland Center
Fri 09:21:15 AM 39.2342 -122.5606 192° South 454 522 31,000  Level Oakland Center
Fri 09:22:16 AM 39.1053 -122.5947 192° South 454 522 31,000  Level Oakland Center
Fri 09:23:16 AM 38.9808 -122.6292 192° South 458 527 31,000 -545 Level Oakland Center
Fri 09:24:17 AM 38.8639 -122.6592 191° South 461 531 29,900 -1,721 Descending Oakland Center
Fri 09:25:18 AM 38.7294 -122.6956 192° South 490 564 27,500 -2,579 Descending Oakland Center
Fri 09:26:18 AM 38.6050 -122.7292 192° South 460 529 24,700 -2,678 Descending Oakland Center
Fri 09:27:19 AM 38.4889 -122.7611 192° South 429 494 22,100 -2,607 Descending Oakland Center
Fri 09:28:20 AM 38.3742 -122.7908 191° South 422 486 19,400 -2,479 Descending Oakland Center
Fri 09:29:20 AM 38.2614 -122.7739 173° South 409 471 17,100 -2,380 Descending Oakland Center
Fri 09:30:21 AM 38.1497 -122.7433 168° South 409 471 14,600 -2,656 Descending Oakland Center
Fri 09:31:22 AM 38.0236 -122.7072 167° South 391 450 11,700 -1,820 Descending Oakland Center
Fri 09:32:23 AM 37.9281 -122.6814 168° South 366 421 10,900 -397 Descending Oakland Center
Fri 09:33:23 AM 37.8494 -122.6200 148° Southeast 357 411 10,900 76 Level Oakland Center
Fri 09:33:42 AM 37.8167 -122.5833 139° Southeast 341 392 11,000 77 Climbing Northern Cal TRACON
Fri 09:34:41 AM 37.7500 -122.5167 142° Southeast 337 388 11,000  Level Northern Cal TRACON
Fri 09:35:41 AM 37.6833 -122.4333 135° Southeast 317 365 11,000  Level Northern Cal TRACON
Fri 09:36:42 AM 37.6167 -122.3833 149° Southeast 250 288 11,000 -57 Level Northern Cal TRACON
Fri 09:37:27 AM 37.5928 -122.3533 135° Southeast 247 284 10,900 -1,143 Descending Oakland Center
Fri 09:38:27 AM 37.5186 -122.3089 155° Southeast 246 283 9,000 -1,983 Descending Oakland Center
Fri 09:39:28 AM 37.4606 -122.2742 155° Southeast 232 267 6,900 -2,213 Descending Oakland Center
Fri 09:40:29 AM 37.4275 -122.2028 120° Southeast 241 277 4,500 -1,475 Descending Oakland Center
Fri 09:41:30 AM 37.4514 -122.1431 63° Northeast 232 267 3,900 -639 Descending Oakland Center
Fri 09:42:31 AM 37.5064 -122.1286 12° North 237 273 3,200 -590 Descending Oakland Center
Fri 09:43:32 AM 37.5372 -122.1764 309° West 199 229 2,700 -443 Descending Oakland Center
Fri 09:44:33 AM 37.5592 -122.2286 298° West 179 206 2,300 -393 Descending Oakland Center

Login

Don't have an account? Register now (free) for customized features, flight alerts, and more!